Terminal Aerodrome Forecast
Issued by NWS

Home | Current Version | Previous Version | Text Only | Print | Product List | Glossary On
Versions: 1 2 3 4 5 6 7 8 9 10 11 12 13 14 15 16 17 18 19
000
FTUS41 KGYX 241200 AAA
TAFPSM
TAF AMD
KPSM 241206Z 2412/2512 36007KT P6SM SCT012 OVC035
     FM241400 36010KT P6SM SCT035 BKN150
     FM241600 36010KT P6SM SCT150
     FM242100 15006KT P6SM BKN200=

USA.gov is the U.S. government's official web portal to all federal, state and local government web resources and services.